Terminal Aerodrome Forecast
Issued by NWS Bismarck, ND

Home | Current Version | Previous Version | Text Only | Print | Product List | Glossary Off
Versions: 1 2 3 4 5 6 7 8 9 10 11 12 13 14 15 16 17 18 19 20 21 22 23 24 25 26

046
FTUS43 KBIS 261733
TAFISN
TAF
KISN 261733Z 2618/2718 28007KT P6SM VCTS BKN010 BKN020 OVC030CB
      TEMPO 2618/2621 -TSRA BKN035CB
     FM262100 32008KT P6SM -SHRA VCTS SCT030 BKN040CB
     FM262300 35009KT P6SM VCTS BKN050CB
     FM270300 02006KT P6SM BKN110
     FM270900 35004KT P6SM OVC020
     FM271300 35004KT P6SM BKN035=

USA.gov is the U.S. government's official web portal to all federal, state and local government web resources and services.